Time;durP1;ratioP1;P1;durP2;ratioP2;P2;SDS_P1;SDS_P2;PMS_P1;PMS_P2;Temp;Humidity;BMP_temperature;BMP_pressure;BME280_temperature;BME280_humidity;BME280_pressure;Samples;Min_cycle;Max_cycle;Signal;HPM_P1;HPM_P2
2021/01/13 06:00:35;;;;;;;5.93;3.00;;;1.40;97.30;;;;;;6002355;23;20366;-74
2021/01/13 06:03:04;;;;;;;21.07;5.13;;;1.40;97.30;;;;;;4914460;29;20472;-73
2021/01/13 06:05:32;;;;;;;11.83;3.70;;;1.40;97.30;;;;;;4917946;29;20530;-73
2021/01/13 06:08:00;;;;;;;16.23;3.33;;;1.40;97.30;;;;;;4917516;29;20409;-73
2021/01/13 06:10:36;;;;;;;8.90;3.23;;;1.40;97.30;;;;;;4915976;29;20416;-73
2021/01/13 06:13:05;;;;;;;5.27;2.80;;;1.50;97.30;;;;;;4898516;29;20842;-73
2021/01/13 06:15:31;;;;;;;10.50;3.17;;;1.50;97.30;;;;;;4898892;29;20809;-73
2021/01/13 06:17:59;;;;;;;10.03;2.93;;;1.40;97.30;;;;;;4898793;29;20425;-72
2021/01/13 06:20:27;;;;;;;5.37;2.50;;;1.40;97.30;;;;;;4898298;29;20452;-72
2021/01/13 06:22:55;;;;;;;15.10;3.07;;;1.40;97.30;;;;;;4898022;29;20512;-71
2021/01/13 06:25:31;;;;;;;6.50;3.00;;;1.40;97.30;;;;;;4898573;29;20768;-72
2021/01/13 06:28:21;;;;;;;10.77;3.27;;;1.40;97.30;;;;;;4897742;29;20453;-71
2021/01/13 06:30:59;;;;;;;3.67;2.77;;;1.40;97.30;;;;;;4899553;29;20437;-72
2021/01/13 06:33:25;;;;;;;11.77;3.40;;;1.40;97.30;;;;;;4898346;29;20413;-72
2021/01/13 06:36:28;;;;;;;7.93;3.40;;;1.40;97.30;;;;;;4897943;29;20481;-72
2021/01/13 06:38:59;;;;;;;12.20;3.03;;;1.40;97.30;;;;;;4899140;29;20417;-72
2021/01/13 06:41:26;;;;;;;10.53;2.73;;;1.40;97.30;;;;;;4899091;29;20430;-73
2021/01/13 06:44:02;;;;;;;9.57;3.20;;;1.40;97.30;;;;;;4898960;29;20500;-73
2021/01/13 06:46:28;;;;;;;6.40;3.27;;;1.30;97.30;;;;;;4898401;29;21006;-73
2021/01/13 06:48:55;;;;;;;11.93;3.47;;;1.30;97.30;;;;;;4898633;29;20657;-73
2021/01/13 06:51:26;;;;;;;7.40;3.63;;;1.30;97.30;;;;;;4898473;29;20437;-73
2021/01/13 06:53:52;;;;;;;8.03;3.10;;;1.30;97.30;;;;;;4899655;29;20416;-73
2021/01/13 06:56:19;;;;;;;13.80;4.40;;;1.30;97.30;;;;;;4897526;29;20512;-73
2021/01/13 06:59:01;;;;;;;9.17;3.27;;;1.30;97.30;;;;;;4897700;29;20455;-73
2021/01/13 07:01:28;;;;;;;8.37;3.00;;;1.40;97.30;;;;;;4897771;29;20468;-72
2021/01/13 07:04:06;;;;;;;8.80;3.80;;;1.30;97.30;;;;;;4898490;29;20413;-72
2021/01/13 07:06:32;;;;;;;10.50;3.40;;;1.40;97.30;;;;;;4897745;29;20962;-71
2021/01/13 07:08:58;;;;;;;7.57;3.90;;;1.40;97.30;;;;;;4897637;29;20413;-71
2021/01/13 07:11:25;;;;;;;10.60;3.47;;;1.40;97.30;;;;;;4896964;29;20528;-72
2021/01/13 07:14:00;;;;;;;6.93;4.07;;;1.50;97.30;;;;;;4897025;29;20807;-72
2021/01/13 07:16:30;;;;;;;12.80;4.90;;;1.50;97.30;;;;;;4897434;29;20413;-71
2021/01/13 07:19:02;;;;;;;9.63;4.57;;;1.60;97.30;;;;;;4896889;29;20523;-71
2021/01/13 07:21:39;;;;;;;14.50;5.37;;;1.60;97.30;;;;;;4896343;29;20951;-72
2021/01/13 07:24:15;;;;;;;17.23;6.20;;;1.60;97.30;;;;;;4898605;29;21016;-72
2021/01/13 07:26:43;;;;;;;14.47;4.70;;;1.60;97.30;;;;;;4896705;29;20424;-71
2021/01/13 07:29:09;;;;;;;11.23;3.70;;;1.70;97.30;;;;;;4898291;29;20404;-72
2021/01/13 07:31:35;;;;;;;17.33;3.97;;;1.80;97.30;;;;;;4896788;29;20452;-72
2021/01/13 07:34:25;;;;;;;7.20;3.67;;;1.80;97.30;;;;;;4898249;29;20478;-72
2021/01/13 07:37:00;;;;;;;9.43;3.77;;;1.90;97.30;;;;;;4894924;29;20429;-73
2021/01/13 07:40:06;;;;;;;15.00;4.23;;;1.90;97.30;;;;;;4896718;29;20451;-72
2021/01/13 07:42:45;;;;;;;11.93;4.60;;;1.90;97.30;;;;;;4898559;29;20453;-72
2021/01/13 07:45:19;;;;;;;12.73;4.00;;;2.00;97.30;;;;;;4896989;29;20429;-72
2021/01/13 07:48:32;;;;;;;11.10;5.20;;;2.00;97.30;;;;;;4896444;29;20421;-72
2021/01/13 07:51:09;;;;;;;12.00;4.20;;;2.00;97.30;;;;;;4898308;29;20434;-72
2021/01/13 07:53:38;;;;;;;6.50;3.50;;;2.00;97.30;;;;;;4896783;29;20436;-70
2021/01/13 07:56:05;;;;;;;27.20;3.80;;;2.00;97.30;;;;;;4897029;29;20410;-70
2021/01/13 07:58:35;;;;;;;11.50;3.83;;;2.00;97.30;;;;;;4896782;29;20420;-70
2021/01/13 08:01:34;;;;;;;15.13;3.53;;;2.00;97.30;;;;;;4896475;29;20606;-71
2021/01/13 08:04:34;;;;;;;5.60;3.27;;;2.00;97.30;;;;;;4897155;29;20855;-71
2021/01/13 08:07:02;;;;;;;7.00;2.80;;;2.00;97.30;;;;;;4896390;29;20413;-71
2021/01/13 08:09:34;;;;;;;5.50;2.50;;;2.00;97.30;;;;;;4898190;29;20405;-71
2021/01/13 08:12:07;;;;;;;5.03;2.90;;;2.00;97.30;;;;;;4896705;29;20528;-71
2021/01/13 08:14:42;;;;;;;10.40;2.97;;;1.90;97.30;;;;;;4896524;29;20434;-71
2021/01/13 08:17:33;;;;;;;10.43;2.93;;;1.90;97.30;;;;;;4898420;29;20404;-71
2021/01/13 08:20:21;;;;;;;7.50;2.90;;;1.90;97.30;;;;;;4897357;29;20460;-73
2021/01/13 08:23:09;;;;;;;8.70;3.90;;;1.90;97.30;;;;;;4896346;29;20536;-73
2021/01/13 08:25:51;;;;;;;7.70;2.90;;;1.90;97.30;;;;;;4897067;29;20426;-72
2021/01/13 08:28:19;;;;;;;12.03;3.50;;;1.80;97.30;;;;;;4896479;29;20414;-72
2021/01/13 08:30:48;;;;;;;10.40;3.27;;;1.90;97.30;;;;;;4896501;29;20789;-73
2021/01/13 08:33:25;;;;;;;12.30;3.20;;;1.90;97.30;;;;;;4899445;29;20457;-73
2021/01/13 08:35:59;;;;;;;6.13;2.50;;;2.00;97.30;;;;;;4899912;29;20448;-73
2021/01/13 08:38:26;;;;;;;9.70;3.23;;;2.00;97.30;;;;;;4901329;29;20414;-72
2021/01/13 08:40:54;;;;;;;9.93;3.50;;;1.90;97.30;;;;;;4899907;29;20445;-71
2021/01/13 08:43:22;;;;;;;5.27;2.43;;;1.90;97.30;;;;;;4900898;29;20463;-71
2021/01/13 08:45:50;;;;;;;6.97;3.30;;;2.00;97.30;;;;;;4900021;29;20440;-74
2021/01/13 08:48:18;;;;;;;8.60;4.00;;;2.20;97.30;;;;;;4899771;29;20915;-70
2021/01/13 08:51:06;;;;;;;10.60;3.70;;;2.30;97.30;;;;;;4899568;29;20553;-71
2021/01/13 08:53:33;;;;;;;11.07;3.40;;;2.40;97.30;;;;;;4899889;29;20425;-70
2021/01/13 08:56:00;;;;;;;7.80;2.80;;;2.40;97.30;;;;;;4899632;29;20473;-70
2021/01/13 08:58:28;;;;;;;9.47;2.40;;;2.30;97.30;;;;;;4899216;29;20433;-70
2021/01/13 09:01:09;;;;;;;11.40;2.80;;;2.20;97.30;;;;;;4899743;29;20449;-70
2021/01/13 09:03:43;;;;;;;5.93;2.17;;;2.20;97.30;;;;;;4899297;29;20471;-71
2021/01/13 09:06:27;;;;;;;14.03;3.00;;;2.20;97.30;;;;;;4899377;29;20425;-71
2021/01/13 09:08:57;;;;;;;10.70;3.33;;;2.20;97.30;;;;;;4899572;29;20920;-70
2021/01/13 09:11:33;;;;;;;7.80;2.77;;;2.20;97.30;;;;;;4899293;29;20865;-70
2021/01/13 09:14:21;;;;;;;11.37;3.43;;;2.20;97.30;;;;;;4899465;29;20420;-70
2021/01/13 09:16:55;;;;;;;6.97;2.87;;;2.20;97.30;;;;;;4900612;29;20410;-71
2021/01/13 09:19:42;;;;;;;7.77;2.93;;;2.20;97.30;;;;;;4899113;29;20442;-71
2021/01/13 09:22:10;;;;;;;4.40;2.30;;;2.20;97.30;;;;;;4899062;29;21066;-70
2021/01/13 09:24:40;;;;;;;5.97;3.00;;;2.20;97.30;;;;;;4898996;29;20422;-70
2021/01/13 09:27:08;;;;;;;7.90;3.50;;;2.20;97.30;;;;;;4898726;29;20844;-70
2021/01/13 09:29:54;;;;;;;6.73;2.60;;;2.20;97.30;;;;;;4899370;29;20460;-72
2021/01/13 09:32:22;;;;;;;11.50;3.17;;;2.10;97.30;;;;;;4899358;29;20437;-71
2021/01/13 09:34:50;;;;;;;10.80;3.87;;;2.10;97.30;;;;;;4899202;29;20452;-72
2021/01/13 09:37:19;;;;;;;10.27;3.17;;;2.10;97.30;;;;;;4900501;29;20480;-72
2021/01/13 09:39:58;;;;;;;12.43;2.70;;;2.10;97.30;;;;;;4898719;29;20422;-72
2021/01/13 09:42:39;;;;;;;13.17;3.17;;;2.10;97.30;;;;;;4898659;29;20468;-72
2021/01/13 09:45:07;;;;;;;7.20;2.90;;;2.10;97.30;;;;;;4899010;29;20505;-72
2021/01/13 09:47:33;;;;;;;6.17;2.73;;;2.10;97.30;;;;;;4898616;29;20554;-72
2021/01/13 09:49:59;;;;;;;15.37;3.67;;;2.10;97.30;;;;;;4898751;29;20512;-73
2021/01/13 09:52:39;;;;;;;5.47;2.83;;;2.10;97.30;;;;;;4898846;29;20446;-72
2021/01/13 09:55:05;;;;;;;6.00;3.07;;;2.10;97.30;;;;;;4898668;29;20512;-73
2021/01/13 09:57:35;;;;;;;9.83;3.50;;;2.20;97.30;;;;;;4898497;29;20457;-72
2021/01/13 10:00:07;;;;;;;6.80;3.10;;;2.10;97.30;;;;;;4900560;29;20529;-72
2021/01/13 10:02:33;;;;;;;10.70;4.10;;;2.10;97.30;;;;;;4898060;29;20507;-72
2021/01/13 10:04:59;;;;;;;16.73;4.30;;;2.10;97.30;;;;;;4899752;29;20414;-73
2021/01/13 10:07:30;;;;;;;9.37;2.80;;;2.10;97.30;;;;;;4898526;29;20189;-73
2021/01/13 10:09:57;;;;;;;4.33;3.10;;;2.10;97.30;;;;;;4898346;29;20452;-72
2021/01/13 10:12:42;;;;;;;12.10;4.07;;;2.10;97.30;;;;;;4899323;29;20464;-73
2021/01/13 10:15:10;;;;;;;12.60;4.73;;;2.20;97.30;;;;;;4899417;29;20424;-74
2021/01/13 10:17:37;;;;;;;7.73;3.33;;;2.20;97.30;;;;;;4897739;29;20425;-73
2021/01/13 10:20:17;;;;;;;18.13;5.77;;;2.20;97.30;;;;;;4900030;29;20448;-72
2021/01/13 10:22:44;;;;;;;7.20;3.70;;;2.20;97.30;;;;;;4898938;29;20477;-71
2021/01/13 10:25:11;;;;;;;9.20;3.90;;;2.30;97.30;;;;;;4899650;29;20413;-72
2021/01/13 10:27:43;;;;;;;10.17;4.80;;;2.20;97.30;;;;;;4899426;29;20414;-73
2021/01/13 10:30:12;;;;;;;10.57;4.17;;;2.20;97.30;;;;;;4899204;29;20421;-72
2021/01/13 10:32:52;;;;;;;9.23;3.90;;;2.20;97.30;;;;;;4898124;29;20975;-71
2021/01/13 10:35:20;;;;;;;27.63;5.27;;;2.20;97.30;;;;;;4898339;29;20425;-73
2021/01/13 10:37:55;;;;;;;12.90;4.37;;;2.20;97.30;;;;;;4899376;29;20904;-72
2021/01/13 10:40:22;;;;;;;14.93;4.33;;;2.20;97.30;;;;;;4898473;29;20505;-71
2021/01/13 10:42:50;;;;;;;12.10;4.80;;;2.20;97.30;;;;;;4898619;29;20811;-72
2021/01/13 10:45:17;;;;;;;8.43;4.47;;;2.20;97.30;;;;;;4898588;29;20457;-71
2021/01/13 10:47:55;;;;;;;14.30;4.43;;;2.20;97.30;;;;;;4899522;29;20469;-71
2021/01/13 10:50:23;;;;;;;11.70;5.23;;;2.20;97.30;;;;;;4899527;29;20465;-71
2021/01/13 10:52:57;;;;;;;11.53;5.73;;;2.30;97.30;;;;;;4899401;29;20424;-72
2021/01/13 10:55:25;;;;;;;10.70;4.50;;;2.30;97.30;;;;;;4897713;29;20428;-71
2021/01/13 10:57:52;;;;;;;10.43;4.20;;;2.30;97.30;;;;;;4898882;29;20426;-71
2021/01/13 11:00:19;;;;;;;8.93;4.53;;;2.40;97.30;;;;;;4898549;29;20417;-73
2021/01/13 11:03:10;;;;;;;11.20;5.10;;;2.40;97.30;;;;;;4899601;29;20558;-73
2021/01/13 11:05:38;;;;;;;11.07;5.20;;;2.40;97.30;;;;;;4898214;29;20429;-73
2021/01/13 11:08:04;;;;;;;8.17;4.07;;;2.40;97.30;;;;;;4897520;29;20417;-72
2021/01/13 11:10:30;;;;;;;10.80;4.90;;;2.40;97.30;;;;;;4898868;29;20504;-71
2021/01/13 11:13:13;;;;;;;11.00;4.73;;;2.40;97.30;;;;;;4898556;29;20524;-71
2021/01/13 11:15:39;;;;;;;11.33;4.47;;;2.40;97.30;;;;;;4897845;29;20862;-71
2021/01/13 11:18:11;;;;;;;7.90;3.60;;;2.50;97.30;;;;;;4898515;29;20513;-70
2021/01/13 11:20:37;;;;;;;15.83;4.80;;;2.50;97.30;;;;;;4897270;29;20453;-71
2021/01/13 11:23:05;;;;;;;14.57;4.60;;;2.60;97.30;;;;;;4897156;29;20853;-71
2021/01/13 11:25:36;;;;;;;9.00;4.00;;;2.60;97.30;;;;;;4897359;29;20448;-70
2021/01/13 11:28:06;;;;;;;8.10;4.60;;;2.70;97.30;;;;;;4897727;29;20923;-71
2021/01/13 11:30:36;;;;;;;10.93;5.50;;;2.70;97.30;;;;;;4897399;29;20428;-71
2021/01/13 11:33:04;;;;;;;11.13;4.77;;;2.70;97.30;;;;;;4897166;29;20464;-71
2021/01/13 11:35:33;;;;;;;5.63;3.93;;;2.70;97.30;;;;;;4898853;29;20537;-72
2021/01/13 11:38:25;;;;;;;9.67;4.37;;;2.70;97.30;;;;;;4897123;29;20426;-73
2021/01/13 11:40:57;;;;;;;11.50;4.83;;;2.70;97.30;;;;;;4898766;29;20492;-73
2021/01/13 11:43:31;;;;;;;11.10;6.40;;;2.70;97.30;;;;;;4896982;29;20469;-71
2021/01/13 11:46:16;;;;;;;12.90;4.90;;;2.60;97.30;;;;;;4898447;29;20417;-72
2021/01/13 11:49:06;;;;;;;9.43;5.03;;;2.60;97.30;;;;;;4897419;29;20449;-73
2021/01/13 11:51:39;;;;;;;12.30;5.00;;;2.60;97.30;;;;;;4897969;29;20437;-73
2021/01/13 11:54:05;;;;;;;14.27;5.37;;;2.60;97.30;;;;;;4898776;29;20401;-72
2021/01/13 11:56:41;;;;;;;9.67;4.20;;;2.60;97.30;;;;;;4895801;29;20496;-72
2021/01/13 11:59:08;;;;;;;11.47;5.53;;;2.60;97.30;;;;;;4923865;29;20503;-71
2021/01/13 12:01:46;;;;;;;8.47;4.73;;;2.60;97.30;;;;;;4899874;29;20468;-71
2021/01/13 12:04:16;;;;;;;9.90;5.00;;;2.60;97.30;;;;;;4904389;29;20413;-72
2021/01/13 12:06:58;;;;;;;11.33;4.43;;;2.60;97.30;;;;;;4905198;29;20452;-72
2021/01/13 12:09:27;;;;;;;5.97;4.03;;;2.60;97.30;;;;;;4906589;29;20492;-71
2021/01/13 12:11:53;;;;;;;9.50;4.90;;;2.60;97.30;;;;;;4909386;29;20456;-70
2021/01/13 12:14:19;;;;;;;9.13;4.17;;;2.70;97.30;;;;;;4910305;29;20422;-69
2021/01/13 12:16:45;;;;;;;12.90;5.80;;;2.60;97.30;;;;;;4909561;29;20299;-70
2021/01/13 12:19:10;;;;;;;13.40;5.80;;;2.60;97.30;;;;;;4911957;29;20181;-70
2021/01/13 12:21:45;;;;;;;7.77;3.17;;;2.60;97.30;;;;;;4911607;29;20634;-70
2021/01/13 12:24:16;;;;;;;10.73;5.77;;;2.50;97.30;;;;;;4908721;29;20191;-72
2021/01/13 12:26:42;;;;;;;10.73;5.10;;;2.50;97.30;;;;;;4903726;29;20452;-71
2021/01/13 12:29:08;;;;;;;8.73;4.93;;;2.50;97.30;;;;;;4901540;29;20891;-70
2021/01/13 12:31:36;;;;;;;9.73;5.50;;;2.60;97.30;;;;;;4900696;29;20444;-70
2021/01/13 12:34:03;;;;;;;5.57;4.60;;;2.60;97.30;;;;;;4900582;29;20176;-71
2021/01/13 12:36:36;;;;;;;8.53;5.20;;;2.60;97.30;;;;;;4900754;29;20414;-70
2021/01/13 12:39:03;;;;;;;15.10;5.07;;;2.60;97.30;;;;;;4899206;29;20414;-71
2021/01/13 12:41:31;;;;;;;7.93;4.43;;;2.70;97.30;;;;;;4898939;29;20437;-70
2021/01/13 12:44:03;;;;;;;8.30;4.43;;;2.70;97.30;;;;;;4898981;29;20504;-71
2021/01/13 12:46:30;;;;;;;9.67;5.30;;;2.70;97.30;;;;;;4900439;29;20500;-70
2021/01/13 12:48:57;;;;;;;10.90;4.97;;;2.70;97.30;;;;;;4899444;29;20418;-71
2021/01/13 12:51:23;;;;;;;9.60;4.97;;;2.70;97.30;;;;;;4900803;29;20483;-70
2021/01/13 12:53:53;;;;;;;19.50;5.77;;;2.70;97.30;;;;;;4899506;29;20432;-71
2021/01/13 12:56:34;;;;;;;10.67;5.10;;;2.70;97.30;;;;;;4899753;29;20181;-71
2021/01/13 12:59:01;;;;;;;11.87;5.33;;;2.70;97.30;;;;;;4900846;29;20417;-74
2021/01/13 13:01:27;;;;;;;12.93;5.20;;;2.80;97.30;;;;;;4902049;29;20540;-72
2021/01/13 13:03:54;;;;;;;11.93;4.97;;;2.80;97.30;;;;;;4901103;29;20421;-72
2021/01/13 13:06:28;;;;;;;16.97;5.00;;;2.80;97.30;;;;;;4899553;29;20430;-71
2021/01/13 13:08:55;;;;;;;8.60;5.20;;;2.80;97.30;;;;;;4900657;29;20418;-71
2021/01/13 13:11:21;;;;;;;12.07;4.90;;;2.90;97.30;;;;;;4899505;29;20466;-70
2021/01/13 13:13:47;;;;;;;7.83;4.60;;;2.90;97.30;;;;;;4899566;29;20936;-70
2021/01/13 13:16:12;;;;;;;10.80;4.67;;;3.00;97.30;;;;;;4899502;29;20428;-71
2021/01/13 13:18:38;;;;;;;11.27;5.17;;;3.00;97.30;;;;;;4898443;29;20648;-71
2021/01/13 13:21:09;;;;;;;8.33;4.93;;;2.90;97.30;;;;;;4900294;29;20228;-70
2021/01/13 13:23:35;;;;;;;11.93;5.03;;;2.90;97.30;;;;;;4899256;29;20460;-69
2021/01/13 13:26:00;;;;;;;10.17;3.67;;;2.90;97.30;;;;;;4900409;29;20413;-69
2021/01/13 13:28:26;;;;;;;5.43;3.90;;;2.90;97.30;;;;;;4899007;29;20178;-70
2021/01/13 13:30:52;;;;;;;7.77;4.10;;;2.90;97.30;;;;;;4898968;29;20876;-70
2021/01/13 13:33:18;;;;;;;13.23;5.33;;;2.90;97.30;;;;;;4899089;29;20230;-70
2021/01/13 13:35:43;;;;;;;9.27;5.10;;;2.90;97.30;;;;;;4899003;29;20185;-70
2021/01/13 13:38:09;;;;;;;9.50;4.83;;;2.90;97.30;;;;;;4898958;29;20275;-70
2021/01/13 13:40:35;;;;;;;12.17;6.03;;;2.90;97.30;;;;;;4900186;29;20232;-71
2021/01/13 13:43:00;;;;;;;10.27;4.60;;;2.90;97.30;;;;;;4899021;29;20244;-69
2021/01/13 13:45:26;;;;;;;8.77;4.87;;;2.90;97.30;;;;;;4897602;29;20225;-71
2021/01/13 13:47:51;;;;;;;13.40;5.20;;;2.80;97.30;;;;;;4898330;29;20675;-70
2021/01/13 13:50:17;;;;;;;12.57;5.50;;;2.80;97.30;;;;;;4898778;29;20187;-72
2021/01/13 13:52:43;;;;;;;14.10;4.87;;;2.80;97.30;;;;;;4898419;29;20201;-71
2021/01/13 13:55:09;;;;;;;8.90;4.60;;;2.80;97.30;;;;;;4898642;29;20309;-72
2021/01/13 13:57:35;;;;;;;7.03;3.53;;;2.80;97.30;;;;;;4899674;29;20199;-72
2021/01/13 14:00:00;;;;;;;10.73;5.10;;;2.80;97.30;;;;;;4899119;29;20827;-70
2021/01/13 14:02:26;;;;;;;10.90;5.40;;;2.90;97.30;;;;;;4900187;29;20246;-70
2021/01/13 14:04:52;;;;;;;7.80;4.60;;;2.90;97.30;;;;;;4898313;29;20647;-72
2021/01/13 14:07:18;;;;;;;7.40;4.90;;;3.00;97.30;;;;;;4897365;29;20347;-73
2021/01/13 14:09:43;;;;;;;8.80;4.80;;;3.00;97.30;;;;;;4899126;29;20182;-75
2021/01/13 14:12:10;;;;;;;12.53;5.03;;;3.00;97.30;;;;;;4899177;29;20623;-78
2021/01/13 14:14:36;;;;;;;7.80;4.47;;;3.10;97.30;;;;;;4900232;29;20229;-76
2021/01/13 14:17:01;;;;;;;8.63;4.83;;;3.10;97.30;;;;;;4898759;29;20461;-68
2021/01/13 14:19:27;;;;;;;10.10;4.80;;;3.10;97.30;;;;;;4898912;29;20181;-70
2021/01/13 14:21:53;;;;;;;5.60;3.03;;;3.00;97.30;;;;;;4898573;29;20213;-69
2021/01/13 14:24:19;;;;;;;6.57;5.00;;;3.00;97.30;;;;;;4898205;29;20197;-69
2021/01/13 14:26:44;;;;;;;6.50;4.83;;;3.00;97.30;;;;;;4899363;29;20720;-69
2021/01/13 14:29:10;;;;;;;6.20;4.40;;;2.90;97.30;;;;;;4899217;29;20199;-69
2021/01/13 14:31:37;;;;;;;9.50;4.43;;;2.90;97.30;;;;;;4897866;29;20662;-71
2021/01/13 14:34:04;;;;;;;9.33;6.00;;;2.90;97.30;;;;;;4897830;29;20652;-72
2021/01/13 14:36:30;;;;;;;6.73;3.97;;;2.90;97.30;;;;;;4897497;29;20421;-71
2021/01/13 14:38:56;;;;;;;8.43;4.47;;;2.90;97.30;;;;;;4899617;29;20445;-70
2021/01/13 14:41:29;;;;;;;12.17;5.50;;;2.80;97.30;;;;;;4897598;29;20201;-70
2021/01/13 14:43:55;;;;;;;6.30;5.30;;;2.80;97.30;;;;;;4898711;29;20237;-69
2021/01/13 14:46:21;;;;;;;9.97;4.70;;;2.80;97.30;;;;;;4897455;29;20932;-71
2021/01/13 14:48:47;;;;;;;9.37;4.53;;;2.80;97.30;;;;;;4897949;29;20410;-72
2021/01/13 14:51:13;;;;;;;6.00;4.50;;;2.80;97.30;;;;;;4898646;29;20429;-77
2021/01/13 14:53:38;;;;;;;6.87;3.97;;;2.80;97.30;;;;;;4899189;29;20225;-73
2021/01/13 14:56:04;;;;;;;12.93;5.30;;;2.80;97.30;;;;;;4897452;29;20687;-71
2021/01/13 14:58:30;;;;;;;8.30;4.57;;;2.80;97.30;;;;;;4896873;29;20235;-72
2021/01/13 15:00:56;;;;;;;6.97;3.80;;;2.80;97.30;;;;;;4898261;29;20464;-71
2021/01/13 15:03:21;;;;;;;10.17;4.13;;;2.80;97.30;;;;;;4898781;29;20208;-70
2021/01/13 15:05:47;;;;;;;8.53;4.87;;;2.70;97.30;;;;;;4896672;29;20185;-68
2021/01/13 15:08:12;;;;;;;7.87;4.50;;;2.70;97.30;;;;;;4898587;29;20169;-69
2021/01/13 15:10:38;;;;;;;6.50;3.83;;;2.70;97.30;;;;;;4898498;29;20193;-68
2021/01/13 15:13:04;;;;;;;12.90;4.30;;;2.70;97.30;;;;;;4898213;29;20178;-69
2021/01/13 15:15:29;;;;;;;8.43;3.83;;;2.70;97.30;;;;;;4896773;29;20181;-69
2021/01/13 15:17:55;;;;;;;7.70;3.70;;;2.70;97.30;;;;;;4897094;29;20549;-70
2021/01/13 15:20:21;;;;;;;6.70;3.83;;;2.70;97.30;;;;;;4897509;29;20181;-70
2021/01/13 15:22:48;;;;;;;11.93;4.00;;;2.70;97.30;;;;;;4896999;29;20213;-69
2021/01/13 15:25:17;;;;;;;12.40;4.00;;;2.70;97.30;;;;;;4898134;29;20852;-70
2021/01/13 15:27:46;;;;;;;9.03;4.40;;;2.70;97.30;;;;;;4896004;29;20416;-69
2021/01/13 15:30:18;;;;;;;8.80;4.87;;;2.70;97.30;;;;;;4915743;29;20511;-69
2021/01/13 15:32:43;;;;;;;7.10;3.70;;;2.70;97.30;;;;;;4916995;29;20416;-69
2021/01/13 15:35:09;;;;;;;10.43;3.80;;;2.70;97.30;;;;;;4915726;29;20428;-69
2021/01/13 15:37:36;;;;;;;17.37;4.10;;;2.70;97.30;;;;;;4897844;29;20192;-67
2021/01/13 15:40:04;;;;;;;6.80;3.77;;;2.70;97.30;;;;;;4899206;29;20417;-74
2021/01/13 15:42:30;;;;;;;5.47;3.53;;;2.70;97.30;;;;;;4901969;29;20461;-78
2021/01/13 15:44:56;;;;;;;8.60;3.77;;;2.70;97.30;;;;;;4897992;29;20508;-78
2021/01/13 15:47:22;;;;;;;12.67;4.53;;;2.70;97.30;;;;;;4898204;29;20287;-76
2021/01/13 15:49:51;;;;;;;12.37;5.07;;;2.60;97.30;;;;;;4898025;29;20181;-75
2021/01/13 15:52:22;;;;;;;5.57;3.97;;;2.60;97.30;;;;;;4897005;29;20208;-74
2021/01/13 15:54:49;;;;;;;8.77;5.23;;;2.60;97.30;;;;;;4898333;29;20497;-71
2021/01/13 15:57:17;;;;;;;8.17;3.80;;;2.60;97.30;;;;;;4896278;29;20437;-71
2021/01/13 15:59:44;;;;;;;11.60;4.33;;;2.50;97.30;;;;;;4896497;29;20485;-72
2021/01/13 16:02:10;;;;;;;13.70;5.33;;;2.50;97.30;;;;;;4896625;29;20473;-72
2021/01/13 16:04:36;;;;;;;13.20;4.30;;;2.50;97.30;;;;;;4897163;29;20803;-73
2021/01/13 16:07:06;;;;;;;6.30;3.77;;;2.40;97.30;;;;;;4896982;29;20761;-71
2021/01/13 16:09:32;;;;;;;10.10;4.43;;;2.40;97.30;;;;;;4896525;29;20501;-72
2021/01/13 16:11:59;;;;;;;9.93;4.20;;;2.50;97.30;;;;;;4896748;29;20442;-71
2021/01/13 16:14:29;;;;;;;8.30;4.80;;;2.40;97.30;;;;;;4898021;29;20410;-72
2021/01/13 16:16:57;;;;;;;8.80;4.23;;;2.40;97.30;;;;;;4897556;29;20516;-72
2021/01/13 16:19:24;;;;;;;9.53;5.90;;;2.40;97.30;;;;;;4898099;29;20481;-72
2021/01/13 16:21:55;;;;;;;23.73;8.90;;;2.40;97.30;;;;;;4896348;29;20445;-70
2021/01/13 16:24:22;;;;;;;40.83;16.80;;;2.40;97.30;;;;;;4895995;29;20482;-71
2021/01/13 16:26:48;;;;;;;16.27;8.63;;;2.40;97.30;;;;;;4896074;29;20930;-70
2021/01/13 16:29:14;;;;;;;7.57;4.57;;;2.40;97.30;;;;;;4909119;29;20413;-71
2021/01/13 16:31:42;;;;;;;9.80;4.87;;;2.40;97.30;;;;;;4915295;29;20596;-70
2021/01/13 16:34:11;;;;;;;11.33;3.20;;;2.40;97.30;;;;;;4904120;29;20441;-69
2021/01/13 16:36:37;;;;;;;5.30;4.17;;;2.40;97.30;;;;;;4895921;29;20917;-70
2021/01/13 16:39:03;;;;;;;10.33;4.13;;;2.40;97.30;;;;;;4898067;29;20459;-72
2021/01/13 16:41:33;;;;;;;4.80;3.50;;;2.40;97.30;;;;;;4897544;29;20950;-72
2021/01/13 16:44:03;;;;;;;12.80;3.97;;;2.40;97.30;;;;;;4897431;29;20504;-72
2021/01/13 16:46:30;;;;;;;5.10;2.93;;;2.40;97.30;;;;;;4897084;29;20432;-73
2021/01/13 16:48:56;;;;;;;22.43;4.23;;;2.40;97.30;;;;;;4897133;29;20417;-73
2021/01/13 16:51:22;;;;;;;9.80;4.50;;;2.40;97.30;;;;;;4895679;29;20805;-71
2021/01/13 16:53:49;;;;;;;5.23;3.20;;;2.40;97.30;;;;;;4898377;29;20441;-70
2021/01/13 16:56:18;;;;;;;7.43;3.77;;;2.40;97.30;;;;;;4899427;29;20430;-71
2021/01/13 16:58:51;;;;;;;9.30;3.87;;;2.40;97.30;;;;;;4899597;29;20440;-72
2021/01/13 17:01:22;;;;;;;9.60;3.90;;;2.40;97.30;;;;;;4899966;29;20552;-72
2021/01/13 17:03:52;;;;;;;5.77;4.00;;;2.40;97.30;;;;;;4898963;29;20461;-70
2021/01/13 17:06:19;;;;;;;7.67;3.90;;;2.40;97.30;;;;;;4897499;29;20453;-70
2021/01/13 17:08:45;;;;;;;4.90;3.57;;;2.40;97.30;;;;;;4899335;29;20441;-72
2021/01/13 17:11:10;;;;;;;11.40;3.70;;;2.40;97.30;;;;;;4901340;29;20447;-68
2021/01/13 17:13:37;;;;;;;7.47;4.03;;;2.40;97.30;;;;;;4910922;29;20181;-70
2021/01/13 17:16:06;;;;;;;10.70;3.33;;;2.40;97.30;;;;;;4915942;29;20421;-69
2021/01/13 17:18:37;;;;;;;5.30;3.20;;;2.40;97.30;;;;;;4899223;29;20477;-71
2021/01/13 17:21:04;;;;;;;9.20;4.80;;;2.40;97.30;;;;;;4899493;29;20487;-72
2021/01/13 17:23:30;;;;;;;5.80;3.47;;;2.40;97.30;;;;;;4899132;29;20497;-71
2021/01/13 17:25:55;;;;;;;8.30;3.97;;;2.50;97.30;;;;;;4898542;29;20457;-73
2021/01/13 17:28:21;;;;;;;31.93;12.60;;;2.50;97.30;;;;;;4900009;29;20460;-72
2021/01/13 17:30:52;;;;;;;13.50;5.73;;;2.50;97.30;;;;;;4899406;29;20445;-78
2021/01/13 17:33:24;;;;;;;41.47;14.80;;;2.50;97.30;;;;;;4900486;29;20178;-78
2021/01/13 17:35:50;;;;;;;33.70;10.90;;;2.50;97.30;;;;;;4902281;29;20429;-83
2021/01/13 17:38:18;;;;;;;63.33;19.30;;;2.60;97.30;;;;;;4900510;29;20795;-69
2021/01/13 17:40:48;;;;;;;38.57;16.63;;;2.60;97.30;;;;;;4899833;29;20573;-71
2021/01/13 17:43:18;;;;;;;8.57;4.07;;;2.60;97.30;;;;;;4899126;29;20473;-70
2021/01/13 17:45:45;;;;;;;13.43;4.57;;;2.60;97.30;;;;;;4900762;29;20570;-69
2021/01/13 17:48:17;;;;;;;6.53;3.50;;;2.60;97.30;;;;;;4899820;29;20493;-70
2021/01/13 17:50:43;;;;;;;6.33;3.90;;;2.60;97.30;;;;;;4900157;29;20438;-70
2021/01/13 17:53:13;;;;;;;5.50;3.00;;;2.70;97.30;;;;;;4899183;29;20417;-69
2021/01/13 17:55:41;;;;;;;12.03;4.77;;;2.70;97.30;;;;;;4900247;29;20421;-71
2021/01/13 17:58:07;;;;;;;6.43;3.30;;;2.70;97.30;;;;;;4899507;29;20473;-71
2021/01/13 18:00:33;;;;;;;5.10;3.90;;;2.70;97.30;;;;;;4898952;29;20418;-70
2021/01/13 18:03:01;;;;;;;10.37;3.50;;;2.70;97.30;;;;;;4898898;29;20269;-71
2021/01/13 18:05:31;;;;;;;4.53;3.50;;;2.70;97.30;;;;;;4899156;29;20414;-78
2021/01/13 18:07:58;;;;;;;5.20;3.27;;;2.80;97.30;;;;;;4900622;29;20555;-76
2021/01/13 18:10:28;;;;;;;4.60;3.13;;;2.80;97.30;;;;;;4901262;29;20457;-76
2021/01/13 18:12:55;;;;;;;6.07;4.20;;;2.80;97.30;;;;;;4900034;29;20430;-78
2021/01/13 18:15:26;;;;;;;6.70;3.70;;;2.80;97.30;;;;;;4902766;29;20958;-77
2021/01/13 18:17:59;;;;;;;7.07;3.80;;;2.80;97.30;;;;;;4900906;29;20538;-71
2021/01/13 18:20:27;;;;;;;10.13;4.37;;;2.80;97.30;;;;;;4898740;29;20487;-72
2021/01/13 18:22:52;;;;;;;4.93;3.30;;;2.80;97.30;;;;;;4900934;29;20476;-72
2021/01/13 18:25:18;;;;;;;8.70;4.50;;;2.80;97.30;;;;;;4899557;29;20421;-68
2021/01/13 18:27:45;;;;;;;8.07;3.70;;;2.80;97.30;;;;;;4898160;29;20434;-71
2021/01/13 18:30:12;;;;;;;7.60;3.60;;;2.80;97.30;;;;;;4898137;29;20777;-70
2021/01/13 18:32:51;;;;;;;6.90;3.87;;;2.80;97.30;;;;;;4898844;29;20465;-69
2021/01/13 18:35:19;;;;;;;5.07;3.60;;;2.80;97.30;;;;;;4898795;29;20449;-70
2021/01/13 18:37:50;;;;;;;7.13;3.77;;;2.70;97.30;;;;;;4898017;29;20455;-71
2021/01/13 18:40:20;;;;;;;10.93;4.40;;;2.70;97.30;;;;;;4898549;29;20431;-73
2021/01/13 18:42:46;;;;;;;6.73;3.63;;;2.60;97.30;;;;;;4899142;29;20468;-72
2021/01/13 18:45:12;;;;;;;6.33;3.67;;;2.60;97.30;;;;;;4897990;29;20473;-73
2021/01/13 18:47:37;;;;;;;6.50;4.17;;;2.70;97.30;;;;;;4898390;29;20280;-73
2021/01/13 18:50:05;;;;;;;15.77;5.00;;;2.70;97.30;;;;;;4899261;29;20432;-72
2021/01/13 18:52:31;;;;;;;6.23;4.57;;;2.70;97.30;;;;;;4897957;29;20232;-71
2021/01/13 18:54:56;;;;;;;7.53;4.10;;;2.70;97.30;;;;;;4897702;29;20484;-77
2021/01/13 18:57:22;;;;;;;6.67;3.80;;;2.70;97.30;;;;;;4898472;29;20192;-73
2021/01/13 18:59:48;;;;;;;6.43;3.80;;;2.70;97.30;;;;;;4897989;29;20657;-75
2021/01/13 19:02:16;;;;;;;7.17;4.67;;;2.70;97.30;;;;;;4897506;29;20225;-73
2021/01/13 19:04:42;;;;;;;5.77;3.27;;;2.80;97.30;;;;;;4899179;29;20531;-73
2021/01/13 19:07:08;;;;;;;112.47;27.80;;;2.80;97.30;;;;;;4897783;29;20523;-72